createdAt,value
2019-01-18T00:01:38.742Z,69.00
2019-01-18T00:04:07.694Z,68.03
2019-01-18T00:06:36.368Z,68.43
2019-01-18T00:09:07.210Z,64.97
2019-01-18T00:11:35.900Z,68.97
2019-01-18T00:14:04.700Z,72.63
2019-01-18T00:16:33.437Z,73.20
2019-01-18T00:19:01.920Z,69.17
2019-01-18T00:21:30.514Z,66.50
2019-01-18T00:23:59.134Z,69.50
2019-01-18T00:26:27.772Z,65.27
2019-01-18T00:28:56.373Z,64.73
2019-01-18T00:31:25.003Z,60.80
2019-01-18T00:33:53.593Z,63.70
2019-01-18T00:36:22.335Z,65.83
2019-01-18T00:38:50.905Z,69.10
2019-01-18T00:41:19.372Z,64.87
2019-01-18T00:43:47.936Z,62.60
2019-01-18T00:46:16.399Z,68.57
2019-01-18T00:48:45.120Z,68.83
2019-01-18T00:51:13.715Z,68.73
2019-01-18T00:53:42.156Z,67.93
2019-01-18T00:56:10.753Z,71.07
2019-01-18T00:58:39.340Z,64.07
2019-01-18T01:01:07.988Z,63.97
2019-01-18T01:03:36.575Z,65.17
2019-01-18T01:06:05.274Z,59.23
2019-01-18T01:08:33.778Z,58.13
2019-01-18T01:11:02.111Z,56.63
2019-01-18T01:13:30.852Z,52.30
2019-01-18T01:15:59.421Z,49.10
2019-01-18T01:18:28.216Z,50.27
2019-01-18T01:20:56.875Z,50.70
2019-01-18T01:23:26.667Z,50.53
2019-01-18T01:25:55.232Z,53.80
2019-01-18T01:28:23.897Z,53.30
2019-01-18T01:30:52.578Z,53.80
2019-01-18T01:33:21.268Z,52.97
2019-01-18T01:35:50.475Z,54.67
2019-01-18T01:38:19.136Z,51.13
2019-01-18T01:40:47.935Z,51.23
2019-01-18T01:43:16.606Z,52.30
2019-01-18T01:45:45.058Z,58.20
2019-01-18T01:48:13.611Z,48.87
2019-01-18T01:50:42.146Z,55.40
2019-01-18T01:53:10.662Z,55.73
2019-01-18T01:55:39.396Z,53.43
2019-01-18T01:58:08.006Z,56.30
2019-01-18T02:00:36.773Z,54.90
2019-01-18T02:03:05.619Z,58.10
2019-01-18T02:05:34.312Z,56.23
2019-01-18T02:08:02.895Z,53.63
2019-01-18T02:10:31.646Z,55.00
2019-01-18T02:13:00.326Z,53.47
2019-01-18T02:15:29.004Z,49.70
2019-01-18T02:17:57.722Z,49.63
2019-01-18T02:20:26.218Z,49.17
2019-01-18T02:22:55.009Z,52.50
2019-01-18T02:25:24.721Z,52.10
2019-01-18T02:27:53.469Z,51.80
2019-01-18T02:30:24.709Z,52.57
2019-01-18T02:32:54.329Z,50.97
2019-01-18T02:35:22.965Z,54.90
2019-01-18T02:37:51.652Z,54.17
2019-01-18T02:40:20.266Z,55.97
2019-01-18T02:42:48.923Z,57.80
2019-01-18T02:45:19.812Z,55.23
2019-01-18T02:47:48.186Z,56.27
2019-01-18T02:50:17.194Z,58.03
2019-01-18T02:52:45.978Z,51.53
2019-01-18T02:55:14.654Z,53.53
2019-01-18T02:57:43.343Z,54.77
2019-01-18T03:00:22.671Z,53.50
2019-01-18T03:02:51.586Z,52.63
2019-01-18T03:05:24.462Z,52.00
2019-01-18T03:07:53.245Z,52.00
2019-01-18T03:10:24.111Z,51.87
2019-01-18T03:12:52.840Z,48.90
2019-01-18T03:15:21.609Z,48.23
2019-01-18T03:17:50.199Z,47.57
2019-01-18T03:20:19.186Z,45.97
2019-01-18T03:22:48.034Z,45.43
2019-01-18T03:25:19.188Z,44.37
2019-01-18T03:27:47.742Z,46.97
2019-01-18T03:30:20.469Z,45.47
2019-01-18T03:32:47.524Z,42.00
2019-01-18T03:35:17.576Z,44.97
2019-01-18T03:37:46.234Z,47.60
2019-01-18T03:40:16.526Z,46.60
2019-01-18T03:42:46.074Z,48.07
2019-01-18T03:45:16.264Z,49.63
2019-01-18T03:47:45.033Z,52.40
2019-01-18T03:50:24.762Z,49.13
2019-01-18T03:52:54.488Z,47.10
2019-01-18T03:55:23.109Z,51.40
2019-01-18T03:57:51.546Z,44.83
2019-01-18T04:00:26.474Z,51.37
2019-01-18T04:02:55.529Z,48.53
2019-01-18T04:05:24.380Z,49.40
2019-01-18T04:07:54.161Z,46.57
2019-01-18T04:10:22.878Z,48.40
2019-01-18T04:12:51.579Z,47.47
2019-01-18T04:15:20.935Z,50.30
2019-01-18T04:17:49.653Z,50.73
2019-01-18T04:20:18.757Z,48.70
2019-01-18T04:22:47.626Z,48.63
2019-01-18T04:25:19.943Z,45.97
2019-01-18T04:27:49.575Z,47.40
2019-01-18T04:30:19.559Z,44.07
2019-01-18T04:32:48.179Z,46.50
2019-01-18T04:35:16.717Z,42.60
2019-01-18T04:37:45.499Z,44.73
2019-01-18T04:40:21.685Z,57.07
2019-01-18T04:42:50.359Z,45.10
2019-01-18T04:45:18.969Z,42.70
2019-01-18T04:47:47.588Z,42.40
2019-01-18T04:50:18.350Z,40.33
2019-01-18T04:52:46.988Z,42.70
2019-01-18T04:55:15.695Z,40.80
2019-01-18T04:57:44.344Z,40.67
2019-01-18T05:00:23.699Z,40.87
2019-01-18T05:02:52.646Z,42.37
2019-01-18T05:05:21.372Z,39.50
2019-01-18T05:07:50.144Z,40.73
2019-01-18T05:10:20.629Z,39.97
2019-01-18T05:12:49.385Z,42.43
2019-01-18T05:15:20.208Z,43.60
2019-01-18T05:17:48.888Z,42.20
2019-01-18T05:20:17.756Z,41.70
2019-01-18T05:22:46.524Z,41.30
2019-01-18T05:25:15.407Z,39.20
2019-01-18T05:27:43.895Z,39.07
2019-01-18T05:30:18.211Z,39.77
2019-01-18T05:32:46.862Z,40.57
2019-01-18T05:35:15.629Z,38.20
2019-01-18T05:37:44.178Z,40.30
2019-01-18T05:40:14.788Z,39.10
2019-01-18T05:42:43.677Z,38.93
2019-01-18T05:45:13.339Z,38.93
2019-01-18T05:47:41.954Z,41.00
2019-01-18T05:50:13.178Z,39.53
2019-01-18T05:52:41.946Z,39.67
2019-01-18T05:55:10.827Z,37.20
2019-01-18T05:57:39.410Z,35.13
2019-01-18T06:00:13.608Z,36.00
2019-01-18T06:02:42.149Z,36.67
2019-01-18T06:05:12.626Z,35.63
2019-01-18T06:07:41.168Z,35.17
2019-01-18T06:10:09.889Z,38.23
2019-01-18T06:12:38.560Z,37.33
2019-01-18T06:15:07.500Z,41.80
2019-01-18T06:17:36.213Z,41.97
2019-01-18T06:20:05.936Z,39.73
2019-01-18T06:22:34.376Z,38.27
2019-01-18T06:25:03.589Z,40.60
2019-01-18T06:27:32.090Z,37.70
2019-01-18T06:30:01.808Z,40.73
2019-01-18T06:32:30.337Z,41.97
2019-01-18T06:34:58.723Z,39.83
2019-01-18T06:37:27.152Z,43.42
2019-01-18T06:39:55.716Z,48.37
2019-01-18T06:42:24.189Z,44.17
2019-01-18T06:44:52.614Z,37.90
2019-01-18T06:47:21.319Z,39.67
2019-01-18T06:49:49.975Z,39.90
2019-01-18T06:52:18.623Z,37.90
2019-01-18T06:54:48.297Z,41.73
2019-01-18T06:57:16.849Z,42.47
2019-01-18T06:59:45.253Z,40.73
2019-01-18T07:02:13.846Z,38.17
2019-01-18T07:04:42.451Z,43.87
2019-01-18T07:07:10.949Z,41.40
2019-01-18T07:09:39.642Z,40.80
2019-01-18T07:12:08.295Z,43.97
2019-01-18T07:14:36.811Z,40.93
2019-01-18T07:17:05.346Z,42.67
2019-01-18T07:19:33.659Z,46.87
2019-01-18T07:22:02.134Z,45.10
2019-01-18T07:24:30.553Z,46.00
2019-01-18T07:26:59.182Z,45.53
2019-01-18T07:29:27.821Z,44.87
2019-01-18T07:31:56.517Z,49.27
2019-01-18T07:34:25.038Z,50.53
2019-01-18T07:36:53.555Z,47.90
2019-01-18T07:39:22.480Z,49.20
2019-01-18T07:41:51.266Z,45.00
2019-01-18T07:44:19.910Z,47.93
2019-01-18T07:46:48.459Z,45.40
2019-01-18T07:49:17.020Z,48.37
2019-01-18T07:51:45.619Z,57.47
2019-01-18T07:54:14.302Z,60.97
2019-01-18T07:56:42.959Z,51.13
2019-01-18T07:59:11.543Z,46.73
2019-01-18T08:01:40.346Z,45.53
2019-01-18T08:04:09.019Z,43.17
2019-01-18T08:06:37.633Z,44.07
2019-01-18T08:09:08.210Z,41.50
2019-01-18T08:11:36.703Z,44.93
2019-01-18T08:14:05.695Z,41.80
2019-01-18T08:16:34.184Z,43.20
2019-01-18T08:19:02.810Z,44.93
2019-01-18T08:21:31.577Z,45.03
2019-01-18T08:24:00.271Z,46.80
2019-01-18T08:26:28.754Z,47.13
2019-01-18T08:28:57.386Z,43.53
2019-01-18T08:31:29.083Z,46.63
2019-01-18T08:33:56.309Z,44.33
2019-01-18T08:36:25.002Z,44.23
2019-01-18T08:38:53.516Z,42.70
2019-01-18T08:41:22.269Z,43.83
2019-01-18T08:43:50.658Z,42.60
2019-01-18T08:46:19.676Z,43.43
2019-01-18T08:48:48.479Z,41.80
2019-01-18T08:51:17.179Z,40.77
2019-01-18T08:53:45.743Z,41.00
2019-01-18T08:56:13.941Z,41.20
2019-01-18T08:58:42.553Z,39.40
2019-01-18T09:01:11.005Z,39.50
2019-01-18T09:03:39.400Z,41.27
2019-01-18T09:06:08.108Z,43.67
2019-01-18T09:08:37.704Z,41.17
2019-01-18T09:11:06.428Z,41.30
2019-01-18T09:13:35.003Z,40.10
2019-01-18T09:16:03.651Z,39.70
2019-01-18T09:18:32.766Z,37.37
2019-01-18T09:21:01.364Z,36.50
2019-01-18T09:23:29.910Z,36.53
2019-01-18T09:25:58.468Z,35.30
2019-01-18T09:28:27.046Z,31.00
2019-01-18T09:30:55.699Z,33.97
2019-01-18T09:33:24.333Z,35.13
2019-01-18T09:35:52.880Z,32.77
2019-01-18T09:38:21.671Z,32.10
2019-01-18T09:40:50.003Z,23.83
2019-01-18T09:43:18.653Z,21.47
2019-01-18T09:45:47.169Z,20.70
2019-01-18T09:48:17.907Z,22.63
2019-01-18T09:50:46.607Z,22.67
2019-01-18T09:53:15.379Z,25.70
2019-01-18T09:55:43.950Z,21.07
2019-01-18T09:58:12.647Z,23.30
2019-01-18T10:00:41.420Z,29.87
2019-01-18T10:03:10.087Z,23.87
2019-01-18T10:05:38.763Z,22.93
2019-01-18T10:08:09.915Z,29.53
2019-01-18T10:10:38.820Z,23.87
2019-01-18T10:13:07.408Z,25.77
2019-01-18T10:15:46.572Z,18.37
2019-01-18T10:18:15.528Z,19.20
2019-01-18T10:20:44.315Z,19.30
2019-01-18T10:23:12.982Z,17.20
2019-01-18T10:25:41.582Z,15.98
2019-01-18T10:28:09.906Z,13.43
2019-01-18T10:30:39.634Z,9.73
2019-01-18T10:33:08.429Z,6.00
2019-01-18T10:35:36.861Z,4.37
2019-01-18T10:38:05.710Z,4.73
2019-01-18T10:40:34.338Z,6.00
2019-01-18T10:43:03.055Z,5.77
2019-01-18T10:45:31.701Z,3.30
2019-01-18T10:48:00.384Z,2.83
2019-01-18T10:50:30.985Z,4.03
2019-01-18T10:52:59.356Z,3.17
2019-01-18T10:55:27.945Z,2.30
2019-01-18T10:57:56.677Z,4.13
2019-01-18T11:00:27.635Z,7.37
2019-01-18T11:02:56.735Z,4.23
2019-01-18T11:05:25.718Z,3.43
2019-01-18T11:07:54.362Z,2.13
2019-01-18T11:10:23.015Z,4.03
2019-01-18T11:12:51.707Z,2.93
2019-01-18T11:15:22.524Z,2.93
2019-01-18T11:17:51.237Z,4.63
2019-01-18T11:20:38.308Z,3.03
2019-01-18T11:23:07.019Z,1.57
2019-01-18T11:25:35.624Z,1.70
2019-01-18T11:28:04.400Z,2.80
2019-01-18T11:30:33.064Z,2.73
2019-01-18T11:33:01.719Z,1.93
2019-01-18T11:35:30.372Z,2.27
2019-01-18T11:37:58.950Z,1.85
2019-01-18T11:40:27.570Z,1.80
2019-01-18T11:42:57.127Z,1.93
2019-01-18T11:45:25.846Z,2.33
2019-01-18T11:47:54.549Z,1.97
2019-01-18T11:50:24.494Z,1.73
2019-01-18T11:52:53.247Z,1.50
2019-01-18T11:55:22.058Z,1.70
2019-01-18T11:57:51.016Z,3.90
2019-01-18T12:00:21.856Z,4.37
2019-01-18T12:02:50.773Z,1.60
2019-01-18T12:05:20.360Z,2.07
2019-01-18T12:07:49.554Z,2.93
2019-01-18T12:10:20.542Z,2.70
2019-01-18T12:12:49.332Z,1.70
2019-01-18T12:15:18.057Z,4.50
2019-01-18T12:17:46.850Z,2.13
2019-01-18T12:20:21.100Z,3.07
2019-01-18T12:22:49.848Z,2.23
2019-01-18T12:25:18.735Z,2.10
2019-01-18T12:27:47.312Z,2.80
2019-01-18T12:30:18.726Z,4.07
2019-01-18T12:32:47.327Z,4.03
2019-01-18T12:35:16.086Z,3.17
2019-01-18T12:37:44.722Z,3.43
2019-01-18T12:40:13.423Z,1.97
2019-01-18T12:42:42.158Z,3.47
2019-01-18T12:45:13.938Z,2.20
2019-01-18T12:47:42.500Z,4.50
2019-01-18T12:50:15.538Z,4.47
2019-01-18T12:52:44.486Z,2.20
2019-01-18T12:55:13.187Z,2.60
2019-01-18T12:57:42.783Z,2.60
2019-01-18T13:00:14.359Z,2.90
2019-01-18T13:02:43.649Z,4.20
2019-01-18T13:05:15.912Z,2.40
2019-01-18T13:07:45.620Z,2.67
2019-01-18T13:10:14.772Z,3.20
2019-01-18T13:12:44.082Z,5.97
2019-01-18T13:15:17.238Z,8.43
2019-01-18T13:17:46.542Z,6.80
2019-01-18T13:20:15.827Z,4.03
2019-01-18T13:22:45.257Z,5.03
2019-01-18T13:25:15.001Z,3.43
2019-01-18T13:27:44.409Z,4.83
2019-01-18T13:30:14.539Z,5.87
2019-01-18T13:32:44.602Z,7.33
2019-01-18T13:35:13.903Z,13.20
2019-01-18T13:37:42.637Z,6.47
2019-01-18T13:40:18.683Z,14.73
2019-01-18T13:42:48.457Z,15.73
2019-01-18T13:45:17.391Z,17.53
2019-01-18T13:47:46.170Z,14.90
2019-01-18T13:50:16.412Z,37.77
2019-01-18T13:52:45.271Z,43.50
2019-01-18T13:55:19.314Z,41.77
2019-01-18T13:57:48.077Z,61.23
2019-01-18T14:00:16.741Z,86.50
2019-01-18T14:02:48.470Z,71.37
2019-01-18T14:05:18.230Z,32.30
2019-01-18T14:07:48.276Z,12.20
2019-01-18T14:10:20.011Z,16.83
2019-01-18T14:12:48.637Z,7.40
2019-01-18T14:15:19.767Z,8.20
2019-01-18T14:17:48.446Z,16.93
2019-01-18T14:20:20.940Z,9.57
2019-01-18T14:22:48.589Z,6.80
2019-01-18T14:25:17.384Z,7.60
2019-01-18T14:27:46.293Z,8.70
2019-01-18T14:30:17.984Z,6.30
2019-01-18T14:32:46.407Z,9.23
2019-01-18T14:35:18.483Z,6.97
2019-01-18T14:37:47.089Z,4.47
2019-01-18T14:40:16.006Z,4.77
2019-01-18T14:42:44.873Z,5.47
2019-01-18T14:45:16.826Z,8.20
2019-01-18T14:47:45.490Z,4.80
2019-01-18T14:50:16.328Z,3.57
2019-01-18T14:52:45.347Z,7.97
2019-01-18T14:55:14.068Z,4.93
2019-01-18T14:57:42.776Z,5.77
2019-01-18T15:00:18.100Z,4.50
2019-01-18T15:02:46.715Z,4.03
2019-01-18T15:05:15.247Z,4.83
2019-01-18T15:07:44.011Z,6.13
2019-01-18T15:10:14.715Z,6.00
2019-01-18T15:12:43.429Z,5.57
2019-01-18T15:15:13.831Z,7.83
2019-01-18T15:17:42.514Z,8.30
2019-01-18T15:20:15.190Z,11.73
2019-01-18T15:22:43.810Z,10.27
2019-01-18T15:25:12.659Z,14.97
2019-01-18T15:27:41.195Z,10.50
2019-01-18T15:30:12.235Z,13.20
2019-01-18T15:32:40.730Z,13.23
2019-01-18T15:35:11.531Z,8.10
2019-01-18T15:37:41.413Z,7.20
2019-01-18T15:40:12.324Z,8.30
2019-01-18T15:42:41.112Z,5.60
2019-01-18T15:45:10.023Z,5.47
2019-01-18T15:47:38.732Z,4.23
2019-01-18T15:50:11.506Z,6.10
2019-01-18T15:52:40.246Z,7.47
2019-01-18T15:55:09.357Z,8.27
2019-01-18T15:57:37.927Z,11.83
2019-01-18T16:00:11.096Z,9.07
2019-01-18T16:02:39.937Z,5.37
2019-01-18T16:05:08.570Z,6.53
2019-01-18T16:07:37.069Z,4.70
2019-01-18T16:10:06.006Z,7.47
2019-01-18T16:12:34.721Z,9.93
2019-01-18T16:15:05.799Z,9.07
2019-01-18T16:17:34.749Z,9.00
2019-01-18T16:20:10.626Z,7.27
2019-01-18T16:22:39.383Z,8.43
2019-01-18T16:25:09.781Z,11.18
2019-01-18T16:27:39.451Z,7.03
2019-01-18T16:30:11.949Z,5.87
2019-01-18T16:32:40.691Z,7.70
2019-01-18T16:35:10.628Z,6.70
2019-01-18T16:37:41.588Z,9.67
2019-01-18T16:40:13.419Z,7.40
2019-01-18T16:42:44.174Z,6.27
2019-01-18T16:45:12.989Z,8.60
2019-01-18T16:47:41.629Z,8.30
2019-01-18T16:50:13.171Z,9.03
2019-01-18T16:52:41.950Z,5.83
2019-01-18T16:55:11.390Z,5.23
2019-01-18T16:57:40.198Z,6.07
2019-01-18T17:00:23.789Z,6.23
2019-01-18T17:02:52.427Z,8.90
2019-01-18T17:05:21.243Z,7.70
2019-01-18T17:07:49.830Z,5.27
2019-01-18T17:10:19.595Z,6.13
2019-01-18T17:12:48.456Z,9.67
2019-01-18T17:15:17.048Z,6.03
2019-01-18T17:17:45.792Z,7.27
2019-01-18T17:20:26.649Z,7.63
2019-01-18T17:22:57.019Z,6.80
2019-01-18T17:25:25.838Z,9.23
2019-01-18T17:27:54.554Z,8.57
2019-01-18T17:30:22.951Z,16.40
2019-01-18T17:32:51.675Z,6.20
2019-01-18T17:35:33.296Z,7.20
2019-01-18T17:38:09.062Z,7.67
2019-01-18T17:40:51.098Z,9.03
2019-01-18T17:43:39.491Z,7.87
2019-01-18T17:46:25.284Z,7.37
2019-01-18T17:49:27.359Z,10.00
2019-01-18T17:52:24.262Z,9.23
2019-01-18T17:55:16.043Z,8.67
2019-01-18T17:58:20.732Z,12.67
2019-01-18T18:01:31.001Z,27.63
2019-01-18T18:04:59.094Z,8.80
2019-01-18T18:08:10.884Z,10.83
2019-01-18T18:11:29.714Z,4.93
2019-01-18T18:14:39.355Z,5.80
2019-01-18T18:17:36.877Z,11.73
2019-01-18T18:20:52.037Z,6.57
2019-01-18T18:24:18.163Z,4.60
2019-01-18T18:27:24.212Z,5.27
2019-01-18T18:30:20.955Z,8.70
2019-01-18T18:33:13.147Z,9.40
2019-01-18T18:36:35.599Z,6.20
2019-01-18T18:39:27.109Z,6.33
2019-01-18T18:42:28.264Z,7.60
2019-01-18T18:45:35.800Z,6.57
2019-01-18T18:48:28.449Z,7.07
2019-01-18T18:51:34.372Z,6.40
2019-01-18T18:54:40.698Z,6.93
2019-01-18T18:57:21.182Z,8.17
2019-01-18T19:00:37.293Z,8.13
2019-01-18T19:03:41.213Z,8.27
2019-01-18T19:06:53.070Z,7.77
2019-01-18T19:10:01.596Z,9.63
2019-01-18T19:13:31.428Z,11.93
2019-01-18T19:16:25.207Z,17.07
2019-01-18T19:19:39.605Z,12.60
2019-01-18T19:22:51.841Z,13.13
2019-01-18T19:25:56.899Z,12.60
2019-01-18T19:28:52.399Z,12.23
2019-01-18T19:32:02.238Z,13.57
2019-01-18T19:35:08.046Z,15.67
2019-01-18T19:38:08.743Z,13.07
2019-01-18T19:41:31.665Z,13.77
2019-01-18T19:44:41.616Z,15.17
2019-01-18T19:47:46.780Z,14.90
2019-01-18T19:51:20.894Z,12.73
2019-01-18T19:54:18.306Z,11.40
2019-01-18T19:57:55.865Z,11.10
2019-01-18T20:00:47.357Z,12.63
2019-01-18T20:04:12.367Z,12.18
2019-01-18T20:07:12.118Z,8.53
2019-01-18T20:10:19.215Z,12.00
2019-01-18T20:13:35.378Z,12.47
2019-01-18T20:16:11.623Z,11.90
2019-01-18T20:19:05.337Z,11.05
2019-01-18T20:22:07.457Z,11.33
2019-01-18T20:25:26.724Z,13.93
2019-01-18T20:28:26.702Z,13.47
2019-01-18T20:31:39.493Z,11.03
2019-01-18T20:34:18.472Z,9.90
2019-01-18T20:37:04.450Z,10.80
2019-01-18T20:40:13.147Z,9.87
2019-01-18T20:43:16.596Z,11.97
2019-01-18T20:46:21.357Z,11.77
2019-01-18T20:49:32.512Z,14.70
2019-01-18T20:52:29.157Z,11.13
2019-01-18T20:55:37.884Z,12.87
2019-01-18T20:58:40.912Z,8.97
2019-01-18T21:01:53.896Z,12.40
2019-01-18T21:04:58.449Z,10.20
2019-01-18T21:07:59.833Z,10.83
2019-01-18T21:11:22.133Z,11.07
2019-01-18T21:14:22.828Z,8.70
2019-01-18T21:17:27.816Z,11.67
2019-01-18T21:20:33.907Z,7.77
2019-01-18T21:23:21.422Z,7.10
2019-01-18T21:26:22.401Z,7.63
2019-01-18T21:29:21.842Z,6.10
2019-01-18T21:32:41.761Z,6.77
2019-01-18T21:36:03.865Z,7.03
2019-01-18T21:39:16.892Z,5.53
2019-01-18T21:42:39.096Z,6.60
2019-01-18T21:45:42.859Z,9.43
2019-01-18T21:48:41.694Z,8.17
2019-01-18T21:51:53.792Z,6.03
2019-01-18T21:54:52.276Z,5.63
2019-01-18T21:57:58.047Z,6.03
2019-01-18T22:00:51.836Z,5.03
2019-01-18T22:04:07.946Z,5.93
2019-01-18T22:07:12.809Z,5.77
2019-01-18T22:10:06.437Z,4.40
2019-01-18T22:12:58.021Z,7.00
2019-01-18T22:15:57.737Z,5.67
2019-01-18T22:19:24.459Z,6.40
2019-01-18T22:22:05.862Z,4.93
2019-01-18T22:25:00.242Z,4.93
2019-01-18T22:27:48.384Z,4.77
2019-01-18T22:30:49.947Z,6.57
2019-01-18T22:33:38.887Z,4.93
2019-01-18T22:36:50.468Z,4.63
2019-01-18T22:40:08.972Z,4.47
2019-01-18T22:43:21.990Z,4.47
2019-01-18T22:46:19.874Z,4.83
2019-01-18T22:49:08.126Z,5.10
2019-01-18T22:52:04.672Z,5.30
2019-01-18T22:55:13.429Z,5.37
2019-01-18T22:58:03.851Z,4.77
2019-01-18T23:01:06.133Z,6.40
2019-01-18T23:04:27.221Z,6.43
2019-01-18T23:07:49.357Z,4.60
2019-01-18T23:10:54.913Z,4.70
2019-01-18T23:13:54.924Z,5.97
2019-01-18T23:16:29.833Z,4.97
2019-01-18T23:19:56.210Z,5.20
2019-01-18T23:23:04.198Z,6.40
2019-01-18T23:26:05.800Z,6.97
2019-01-18T23:29:08.235Z,5.13
2019-01-18T23:32:33.555Z,9.63
2019-01-18T23:35:23.751Z,5.13
2019-01-18T23:38:43.016Z,5.10
2019-01-18T23:41:48.252Z,4.77
2019-01-18T23:44:45.447Z,5.07
2019-01-18T23:48:16.687Z,5.70
2019-01-18T23:51:30.519Z,5.20
2019-01-18T23:54:33.025Z,6.93
2019-01-18T23:57:21.495Z,5.20
